createdAt,value
2019-03-26T00:00:55.703Z,1.8
2019-03-26T00:01:58.017Z,1.8
2019-03-26T00:03:00.726Z,1.8
2019-03-26T00:04:07.298Z,1.8
2019-03-26T00:05:09.394Z,1.9
2019-03-26T00:06:11.473Z,1.9
2019-03-26T00:07:13.510Z,2.1
2019-03-26T00:08:15.965Z,2
2019-03-26T00:09:18.059Z,2.1
2019-03-26T00:10:20.402Z,2
2019-03-26T00:11:22.433Z,1.9
2019-03-26T00:12:24.462Z,1.9
2019-03-26T00:13:26.522Z,1.9
2019-03-26T00:14:29.206Z,1.9
2019-03-26T00:15:31.247Z,1.9
2019-03-26T00:16:33.806Z,1.9
2019-03-26T00:17:35.962Z,1.9
2019-03-26T00:18:37.987Z,1.9
2019-03-26T00:19:40.410Z,2
2019-03-26T00:20:42.516Z,1.9
2019-03-26T00:21:44.629Z,1.9
2019-03-26T00:22:46.649Z,1.9
2019-03-26T00:23:48.671Z,1.8
2019-03-26T00:24:50.723Z,1.7
2019-03-26T00:25:52.729Z,1.7
2019-03-26T00:26:54.729Z,1.6
2019-03-26T00:27:56.753Z,1.6
2019-03-26T00:28:58.778Z,1.4
2019-03-26T00:30:01.307Z,1.5
2019-03-26T00:31:03.718Z,1.5
2019-03-26T00:32:05.828Z,1.5
2019-03-26T00:33:07.846Z,1.5
2019-03-26T00:34:21.119Z,1.5
2019-03-26T00:35:23.227Z,1.6
2019-03-26T00:36:25.243Z,1.6
2019-03-26T00:37:30.615Z,1.7
2019-03-26T00:38:32.950Z,1.7
2019-03-26T00:39:35.089Z,1.8
2019-03-26T00:40:40.895Z,1.7
2019-03-26T00:41:43.266Z,1.8
2019-03-26T00:42:45.440Z,1.8
2019-03-26T00:43:47.477Z,1.9
2019-03-26T00:44:49.918Z,1.9
2019-03-26T00:45:52.267Z,1.9
2019-03-26T00:46:54.969Z,2
2019-03-26T00:47:57.527Z,1.9
2019-03-26T00:48:59.638Z,1.8
2019-03-26T00:50:02.031Z,1.8
2019-03-26T00:51:04.055Z,1.8
2019-03-26T00:52:06.061Z,1.9
2019-03-26T00:53:08.086Z,1.9
2019-03-26T00:54:10.298Z,1.9
2019-03-26T00:55:24.153Z,1.9
2019-03-26T00:56:26.343Z,1.8
2019-03-26T00:57:28.780Z,1.9
2019-03-26T00:58:31.104Z,1.9
2019-03-26T00:59:33.110Z,2
2019-03-26T01:00:35.241Z,1.9
2019-03-26T01:01:37.240Z,1.9
2019-03-26T01:02:39.250Z,2
2019-03-26T01:03:42.381Z,2
2019-03-26T01:04:44.384Z,2
2019-03-26T01:05:54.657Z,2
2019-03-26T01:07:01.426Z,2
2019-03-26T01:08:04.540Z,1.9
2019-03-26T01:09:06.558Z,1.9
2019-03-26T01:10:08.569Z,1.9
2019-03-26T01:11:10.869Z,1.9
2019-03-26T01:12:12.880Z,1.9
2019-03-26T01:13:15.278Z,1.9
2019-03-26T01:14:17.288Z,2
2019-03-26T01:15:19.669Z,2
2019-03-26T01:16:22.438Z,1.9
2019-03-26T01:17:24.948Z,2
2019-03-26T01:18:27.356Z,1.9
2019-03-26T01:19:29.891Z,1.9
2019-03-26T01:20:31.978Z,1.9
2019-03-26T01:21:34.094Z,1.9
2019-03-26T01:22:37.127Z,1.9
2019-03-26T01:23:39.214Z,1.8
2019-03-26T01:24:41.215Z,1.8
2019-03-26T01:25:43.340Z,1.8
2019-03-26T01:26:45.347Z,1.8
2019-03-26T01:27:47.352Z,1.8
2019-03-26T01:28:49.631Z,1.7
2019-03-26T01:29:51.679Z,1.7
2019-03-26T01:30:53.963Z,1.7
2019-03-26T01:31:56.284Z,1.8
2019-03-26T01:32:58.681Z,1.8
2019-03-26T01:34:00.746Z,1.8
2019-03-26T01:35:03.055Z,1.8
2019-03-26T01:36:05.108Z,1.8
2019-03-26T01:37:07.402Z,1.8
2019-03-26T01:38:09.405Z,1.7
2019-03-26T01:39:11.412Z,1.8
2019-03-26T01:40:14.039Z,1.8
2019-03-26T01:41:16.315Z,1.7
2019-03-26T01:42:19.486Z,1.7
2019-03-26T01:43:21.990Z,1.7
2019-03-26T01:44:24.042Z,1.8
2019-03-26T01:45:26.332Z,1.9
2019-03-26T01:46:28.388Z,1.9
2019-03-26T01:47:30.388Z,2
2019-03-26T01:48:32.460Z,2.2
2019-03-26T01:49:34.497Z,2.2
2019-03-26T01:50:36.503Z,2.3
2019-03-26T01:51:38.517Z,2.2
2019-03-26T01:52:40.540Z,2.4
2019-03-26T01:53:42.669Z,2.4
2019-03-26T01:54:44.690Z,2.5
2019-03-26T01:55:46.702Z,2.5
2019-03-26T01:56:48.711Z,2.5
2019-03-26T01:57:50.718Z,2.5
2019-03-26T01:58:53.013Z,2.6
2019-03-26T01:59:55.401Z,2.6
2019-03-26T02:00:57.402Z,2.6
2019-03-26T02:01:59.405Z,2.6
2019-03-26T02:03:06.997Z,2.7
2019-03-26T02:04:17.753Z,2.7
2019-03-26T02:05:24.911Z,2.7
2019-03-26T02:06:27.050Z,2.6
2019-03-26T02:07:29.351Z,2.7
2019-03-26T02:08:31.426Z,2.7
2019-03-26T02:09:35.480Z,2.7
2019-03-26T02:10:37.751Z,2.8
2019-03-26T02:11:39.748Z,2.8
2019-03-26T02:12:41.745Z,2.9
2019-03-26T02:13:44.525Z,2.9
2019-03-26T02:14:47.010Z,2.9
2019-03-26T02:15:49.405Z,2.9
2019-03-26T02:16:51.491Z,2.9
2019-03-26T02:17:53.775Z,2.9
2019-03-26T02:18:56.183Z,3
2019-03-26T02:19:59.646Z,3
2019-03-26T02:21:01.721Z,3
2019-03-26T02:22:04.111Z,3
2019-03-26T02:23:06.140Z,3
2019-03-26T02:24:08.665Z,3.1
2019-03-26T02:25:10.665Z,3.1
2019-03-26T02:26:12.672Z,3.1
2019-03-26T02:27:14.985Z,3.1
2019-03-26T02:28:17.214Z,3.1
2019-03-26T02:29:19.317Z,3.2
2019-03-26T02:30:21.994Z,3.1
2019-03-26T02:31:24.130Z,3.2
2019-03-26T02:32:27.511Z,3.2
2019-03-26T02:33:34.750Z,3.2
2019-03-26T02:34:42.664Z,3.2
2019-03-26T02:35:53.603Z,3.3
2019-03-26T02:36:58.765Z,3.3
2019-03-26T02:38:02.055Z,3.3
2019-03-26T02:39:04.753Z,3.3
2019-03-26T02:40:07.319Z,3.3
2019-03-26T02:41:09.453Z,3.3
2019-03-26T02:42:11.455Z,3.3
2019-03-26T02:43:14.036Z,3.3
2019-03-26T02:44:16.072Z,3.4
2019-03-26T02:45:18.380Z,3.4
2019-03-26T02:46:21.081Z,3.4
2019-03-26T02:47:23.652Z,3.4
2019-03-26T02:48:25.952Z,3.4
2019-03-26T02:49:28.370Z,3.4
2019-03-26T02:50:30.705Z,3.4
2019-03-26T02:51:32.990Z,3.4
2019-03-26T02:52:36.127Z,3.4
2019-03-26T02:53:38.131Z,3.4
2019-03-26T02:54:41.010Z,3.4
2019-03-26T02:55:43.038Z,3.4
2019-03-26T02:56:45.423Z,3.4
2019-03-26T02:57:47.752Z,3.4
2019-03-26T02:58:50.044Z,3.4
2019-03-26T02:59:52.341Z,3.4
2019-03-26T03:00:54.347Z,3.3
2019-03-26T03:01:56.648Z,3.3
2019-03-26T03:02:58.951Z,3.3
2019-03-26T03:04:01.268Z,3.3
2019-03-26T03:05:03.287Z,3.3
2019-03-26T03:06:06.827Z,3.3
2019-03-26T03:07:08.883Z,3.2
2019-03-26T03:08:10.959Z,3.2
2019-03-26T03:09:13.372Z,3.2
2019-03-26T03:10:16.105Z,3.2
2019-03-26T03:11:18.472Z,3.2
2019-03-26T03:12:21.188Z,3.2
2019-03-26T03:13:23.822Z,3.2
2019-03-26T03:14:26.195Z,3.2
2019-03-26T03:15:28.516Z,3.3
2019-03-26T03:16:30.615Z,3.2
2019-03-26T03:17:32.948Z,3.3
2019-03-26T03:18:35.633Z,3.2
2019-03-26T03:19:37.657Z,3.2
2019-03-26T03:20:40.132Z,3.2
2019-03-26T03:21:42.154Z,3.2
2019-03-26T03:22:44.552Z,3.2
2019-03-26T03:23:46.898Z,3.2
2019-03-26T03:24:48.905Z,3.2
2019-03-26T03:25:51.308Z,3.2
2019-03-26T03:26:53.727Z,3.2
2019-03-26T03:27:55.752Z,3.2
2019-03-26T03:28:58.153Z,3.2
2019-03-26T03:30:01.765Z,3.2
2019-03-26T03:31:04.317Z,3.1
2019-03-26T03:32:06.385Z,3.1
2019-03-26T03:33:08.996Z,3.1
2019-03-26T03:34:11.121Z,3.1
2019-03-26T03:35:13.222Z,3.1
2019-03-26T03:36:15.536Z,3.1
2019-03-26T03:37:17.541Z,3.1
2019-03-26T03:38:20.128Z,3.1
2019-03-26T03:39:22.515Z,3
2019-03-26T03:40:24.531Z,3
2019-03-26T03:41:26.536Z,3.1
2019-03-26T03:42:28.910Z,3.1
2019-03-26T03:43:31.591Z,3
2019-03-26T03:44:33.616Z,3
2019-03-26T03:45:36.312Z,3.1
2019-03-26T03:46:38.390Z,3
2019-03-26T03:47:40.787Z,3
2019-03-26T03:48:42.800Z,3
2019-03-26T03:49:45.125Z,3
2019-03-26T03:50:47.167Z,3
2019-03-26T03:51:49.170Z,3
2019-03-26T03:52:51.456Z,2.9
2019-03-26T03:53:53.742Z,2.9
2019-03-26T03:54:55.748Z,2.8
2019-03-26T03:55:58.035Z,2.9
2019-03-26T03:57:01.088Z,2.9
2019-03-26T03:58:04.235Z,2.9
2019-03-26T03:59:06.827Z,2.9
2019-03-26T04:00:08.839Z,2.9
2019-03-26T04:01:11.257Z,2.9
2019-03-26T04:02:13.756Z,2.9
2019-03-26T04:03:15.817Z,2.9
2019-03-26T04:04:18.216Z,2.9
2019-03-26T04:05:20.550Z,2.8
2019-03-26T04:06:22.605Z,2.8
2019-03-26T04:07:24.888Z,2.9
2019-03-26T04:08:27.280Z,2.8
2019-03-26T04:09:29.312Z,2.8
2019-03-26T04:10:31.616Z,2.8
2019-03-26T04:11:34.480Z,2.8
2019-03-26T04:12:36.895Z,2.8
2019-03-26T04:13:38.907Z,2.8
2019-03-26T04:14:41.187Z,2.8
2019-03-26T04:15:43.867Z,2.8
2019-03-26T04:16:46.841Z,2.8
2019-03-26T04:17:48.843Z,2.8
2019-03-26T04:18:50.880Z,2.7
2019-03-26T04:19:53.199Z,2.7
2019-03-26T04:20:55.219Z,2.7
2019-03-26T04:21:57.530Z,2.7
2019-03-26T04:23:00.101Z,2.7
2019-03-26T04:24:02.437Z,2.7
2019-03-26T04:25:04.460Z,2.7
2019-03-26T04:26:06.751Z,2.7
2019-03-26T04:27:09.438Z,2.6
2019-03-26T04:28:11.836Z,2.6
2019-03-26T04:29:13.840Z,2.6
2019-03-26T04:30:15.846Z,2.7
2019-03-26T04:31:17.888Z,2.7
2019-03-26T04:32:20.193Z,2.7
2019-03-26T04:33:22.243Z,2.7
2019-03-26T04:34:24.715Z,2.7
2019-03-26T04:35:27.163Z,2.7
2019-03-26T04:36:29.208Z,2.7
2019-03-26T04:37:31.225Z,2.7
2019-03-26T04:38:33.654Z,2.7
2019-03-26T04:39:35.988Z,2.7
2019-03-26T04:40:38.036Z,2.8
2019-03-26T04:41:40.640Z,2.8
2019-03-26T04:42:42.984Z,2.8
2019-03-26T04:43:45.036Z,2.8
2019-03-26T04:44:47.067Z,2.8
2019-03-26T04:45:49.488Z,2.8
2019-03-26T04:46:51.519Z,2.8
2019-03-26T04:47:53.594Z,2.7
2019-03-26T04:48:56.034Z,2.8
2019-03-26T04:49:58.063Z,2.8
2019-03-26T04:51:00.093Z,2.9
2019-03-26T04:52:02.400Z,2.9
2019-03-26T04:53:05.212Z,3
2019-03-26T04:54:07.239Z,3
2019-03-26T04:55:09.646Z,3
2019-03-26T04:56:11.671Z,3
2019-03-26T04:57:13.775Z,3
2019-03-26T04:58:15.793Z,3
2019-03-26T04:59:17.839Z,3.1
2019-03-26T05:00:20.149Z,3.2
2019-03-26T05:01:22.171Z,3.2
2019-03-26T05:02:24.222Z,3.1
2019-03-26T05:03:26.262Z,3.1
2019-03-26T05:04:28.304Z,3.1
2019-03-26T05:05:30.737Z,3.2
2019-03-26T05:06:39.398Z,3.2
2019-03-26T05:07:41.722Z,3.2
2019-03-26T05:08:43.745Z,3.2
2019-03-26T05:09:46.166Z,3.2
2019-03-26T05:10:51.060Z,3.2
2019-03-26T05:11:53.151Z,3.3
2019-03-26T05:12:55.269Z,3.3
2019-03-26T05:13:57.687Z,3.4
2019-03-26T05:14:59.709Z,3.4
2019-03-26T05:16:01.729Z,3.4
2019-03-26T05:17:03.781Z,3.4
2019-03-26T05:18:05.813Z,3.5
2019-03-26T05:19:08.236Z,3.4
2019-03-26T05:20:10.267Z,3.4
2019-03-26T05:21:12.287Z,3.5
2019-03-26T05:22:25.486Z,3.5
2019-03-26T05:23:27.515Z,3.5
2019-03-26T05:24:29.630Z,3.5
2019-03-26T05:25:31.674Z,3.5
2019-03-26T05:26:33.694Z,3.5
2019-03-26T05:27:47.178Z,3.6
2019-03-26T05:28:49.206Z,3.6
2019-03-26T05:29:51.238Z,3.6
2019-03-26T05:30:53.256Z,3.8
2019-03-26T05:31:55.369Z,3.8
2019-03-26T05:32:57.396Z,3.8
2019-03-26T05:33:59.423Z,3.8
2019-03-26T05:35:02.050Z,3.9
2019-03-26T05:36:04.357Z,3.9
2019-03-26T05:37:06.390Z,3.9
2019-03-26T05:38:08.705Z,3.9
2019-03-26T05:39:10.756Z,3.9
2019-03-26T05:40:12.769Z,4
2019-03-26T05:41:14.802Z,4
2019-03-26T05:42:16.840Z,4
2019-03-26T05:43:18.860Z,4
2019-03-26T05:44:20.902Z,4.1
2019-03-26T05:45:22.935Z,4.1
2019-03-26T05:46:24.959Z,4.1
2019-03-26T05:47:26.980Z,4.1
2019-03-26T05:48:29.297Z,4.1
2019-03-26T05:49:31.621Z,4.1
2019-03-26T05:50:33.660Z,4.2
2019-03-26T05:51:35.696Z,4.1
2019-03-26T05:52:37.718Z,4.1
2019-03-26T05:53:39.752Z,4.2
2019-03-26T05:54:41.788Z,4.2
2019-03-26T05:55:43.802Z,4.2
2019-03-26T05:56:45.834Z,4.3
2019-03-26T05:57:48.159Z,4.3
2019-03-26T05:58:50.193Z,4.2
2019-03-26T05:59:52.235Z,4.3
2019-03-26T06:00:54.265Z,4.3
2019-03-26T06:01:56.667Z,4.3
2019-03-26T06:02:58.734Z,4.4
2019-03-26T06:04:00.778Z,4.4
2019-03-26T06:05:03.123Z,4.4
2019-03-26T06:06:05.158Z,4.4
2019-03-26T06:07:07.867Z,4.4
2019-03-26T06:08:09.910Z,4.4
2019-03-26T06:09:11.938Z,4.4
2019-03-26T06:10:14.032Z,4.5
2019-03-26T06:11:16.362Z,4.5
2019-03-26T06:12:18.679Z,4.6
2019-03-26T06:13:20.990Z,4.6
2019-03-26T06:14:23.035Z,4.5
2019-03-26T06:15:25.069Z,4.6
2019-03-26T06:16:40.006Z,4.7
2019-03-26T06:17:42.051Z,4.7
2019-03-26T06:18:44.479Z,4.7
2019-03-26T06:19:46.499Z,4.7
2019-03-26T06:20:48.909Z,4.7
2019-03-26T06:21:50.959Z,4.7
2019-03-26T06:22:53.017Z,4.7
2019-03-26T06:23:55.418Z,4.7
2019-03-26T06:24:57.463Z,4.8
2019-03-26T06:25:59.509Z,4.8
2019-03-26T06:27:01.570Z,4.8
2019-03-26T06:28:03.631Z,4.8
2019-03-26T06:29:05.925Z,4.9
2019-03-26T06:30:08.356Z,4.9
2019-03-26T06:31:10.672Z,4.9
2019-03-26T06:32:12.695Z,4.9
2019-03-26T06:33:14.734Z,4.9
2019-03-26T06:34:16.758Z,4.9
2019-03-26T06:35:18.785Z,5
2019-03-26T06:36:20.815Z,5
2019-03-26T06:37:22.851Z,5
2019-03-26T06:38:24.881Z,5.1
2019-03-26T06:39:27.303Z,5.1
2019-03-26T06:40:29.338Z,5.1
2019-03-26T06:41:31.353Z,5.1
2019-03-26T06:42:33.396Z,5.1
2019-03-26T06:43:35.425Z,5.1
2019-03-26T06:44:37.528Z,5.1
2019-03-26T06:45:40.133Z,5.1
2019-03-26T06:46:42.182Z,5.2
2019-03-26T06:47:44.208Z,5.2
2019-03-26T06:48:46.228Z,5.2
2019-03-26T06:49:48.283Z,5.2
2019-03-26T06:50:50.582Z,5.2
2019-03-26T06:51:53.190Z,5.2
2019-03-26T06:52:55.225Z,5.3
2019-03-26T06:53:57.267Z,5.3
2019-03-26T06:54:59.293Z,5.3
2019-03-26T06:56:01.333Z,5.3
2019-03-26T06:57:03.367Z,5.4
2019-03-26T06:58:05.991Z,5.4
2019-03-26T06:59:08.311Z,5.4
2019-03-26T07:00:10.748Z,5.4
2019-03-26T07:01:12.781Z,5.4
2019-03-26T07:02:15.414Z,5.5
2019-03-26T07:03:17.437Z,5.5
2019-03-26T07:04:19.465Z,5.4
2019-03-26T07:05:21.505Z,5.4
2019-03-26T07:06:23.813Z,5.5
2019-03-26T07:07:33.004Z,5.4
2019-03-26T07:08:35.036Z,5.5
2019-03-26T07:09:37.094Z,5.5
2019-03-26T07:10:39.112Z,5.6
2019-03-26T07:11:41.191Z,5.7
2019-03-26T07:12:43.221Z,5.7
2019-03-26T07:13:45.245Z,5.7
2019-03-26T07:14:47.290Z,5.8
2019-03-26T07:15:49.313Z,5.7
2019-03-26T07:16:51.356Z,5.7
2019-03-26T07:17:53.920Z,5.6
2019-03-26T07:18:56.247Z,5.6
2019-03-26T07:19:58.285Z,5.6
2019-03-26T07:21:00.317Z,5.6
2019-03-26T07:22:02.356Z,5.7
2019-03-26T07:23:04.376Z,5.7
2019-03-26T07:24:06.434Z,5.7
2019-03-26T07:25:08.545Z,5.8
2019-03-26T07:26:10.591Z,5.8
2019-03-26T07:27:12.655Z,5.8
2019-03-26T07:28:14.970Z,5.8
2019-03-26T07:29:17.010Z,5.9
2019-03-26T07:30:19.055Z,6
2019-03-26T07:31:21.359Z,6.1
2019-03-26T07:32:23.414Z,6.2
2019-03-26T07:33:25.442Z,6.3
2019-03-26T07:34:27.472Z,6.3
2019-03-26T07:35:30.104Z,6.3
2019-03-26T07:36:32.498Z,6.3
2019-03-26T07:37:46.755Z,6.3
2019-03-26T07:38:48.791Z,6.3
2019-03-26T07:39:50.816Z,6.3
2019-03-26T07:40:52.870Z,6.4
2019-03-26T07:41:54.915Z,6.4
2019-03-26T07:42:57.054Z,6.3
2019-03-26T07:43:59.480Z,6.4
2019-03-26T07:45:01.534Z,6.4
2019-03-26T07:46:03.585Z,6.4
2019-03-26T07:47:05.616Z,6.3
2019-03-26T07:48:07.658Z,6.4
2019-03-26T07:49:09.692Z,6.4
2019-03-26T07:50:15.047Z,6.4
2019-03-26T07:51:17.070Z,6.4
2019-03-26T07:52:19.577Z,6.4
2019-03-26T07:53:21.608Z,6.3
2019-03-26T07:54:23.645Z,6.4
2019-03-26T07:55:25.684Z,6.3
2019-03-26T07:56:27.989Z,6.3
2019-03-26T07:57:30.032Z,6.3
2019-03-26T07:58:34.337Z,6.3
2019-03-26T07:59:36.364Z,6.2
2019-03-26T08:00:38.724Z,6.1
2019-03-26T08:01:40.765Z,6.1
2019-03-26T08:02:42.795Z,6.1
2019-03-26T08:03:44.822Z,6.1
2019-03-26T08:04:46.857Z,6.1
2019-03-26T08:05:49.202Z,6.2
2019-03-26T08:06:51.291Z,6.1
2019-03-26T08:08:00.052Z,6.2
2019-03-26T08:09:02.110Z,6.2
2019-03-26T08:10:04.146Z,6.3
2019-03-26T08:11:06.180Z,6.3
2019-03-26T08:12:08.222Z,6.3
2019-03-26T08:13:10.711Z,6.3
2019-03-26T08:14:13.113Z,6.3
2019-03-26T08:15:15.576Z,6.3
2019-03-26T08:16:17.665Z,6.3
2019-03-26T08:17:19.766Z,6.3
2019-03-26T08:18:22.215Z,6.3
2019-03-26T08:19:24.242Z,6.3
2019-03-26T08:20:26.566Z,6.3
2019-03-26T08:21:28.607Z,6.3
2019-03-26T08:22:30.635Z,6.4
2019-03-26T08:23:32.946Z,6.3
2019-03-26T08:24:34.978Z,6.4
2019-03-26T08:25:37.589Z,6.5
2019-03-26T08:26:39.622Z,6.6
2019-03-26T08:27:42.047Z,6.6
2019-03-26T08:28:44.091Z,6.5
2019-03-26T08:29:46.119Z,6.5
2019-03-26T08:30:51.288Z,6.4
2019-03-26T08:31:53.322Z,6.4
2019-03-26T08:32:55.348Z,6.5
2019-03-26T08:33:57.381Z,6.5
2019-03-26T08:34:59.705Z,6.6
2019-03-26T08:36:02.142Z,6.7
2019-03-26T08:37:04.204Z,6.9
2019-03-26T08:38:14.398Z,6.9
2019-03-26T08:39:16.702Z,6.8
2019-03-26T08:40:18.838Z,6.8
2019-03-26T08:41:20.872Z,6.9
2019-03-26T08:42:22.919Z,6.9
2019-03-26T08:43:24.960Z,6.9
2019-03-26T08:44:26.992Z,6.9
2019-03-26T08:45:29.033Z,6.9
2019-03-26T08:46:31.122Z,6.8
2019-03-26T08:47:33.163Z,6.8
2019-03-26T08:48:35.213Z,6.7
2019-03-26T08:49:37.264Z,6.8
2019-03-26T08:50:39.281Z,7
2019-03-26T08:51:41.375Z,6.9
2019-03-26T08:52:43.414Z,6.8
2019-03-26T08:53:45.443Z,6.8
2019-03-26T08:54:47.488Z,6.9
2019-03-26T08:55:49.848Z,6.8
2019-03-26T08:56:51.899Z,6.9
2019-03-26T08:57:53.931Z,7
2019-03-26T08:58:55.991Z,7.1
2019-03-26T08:59:58.014Z,7.2
2019-03-26T09:01:00.054Z,7.1
2019-03-26T09:02:02.100Z,7.2
2019-03-26T09:03:04.438Z,7.1
2019-03-26T09:04:06.507Z,7.1
2019-03-26T09:05:08.827Z,7.3
2019-03-26T09:06:10.873Z,7.3
2019-03-26T09:07:12.977Z,7.2
2019-03-26T09:08:27.066Z,7.2
2019-03-26T09:09:29.383Z,7.1
2019-03-26T09:10:31.428Z,7.1
2019-03-26T09:11:33.762Z,7.1
2019-03-26T09:12:35.783Z,7.1
2019-03-26T09:13:37.820Z,7.1
2019-03-26T09:14:39.869Z,7.2
2019-03-26T09:15:41.887Z,7.3
2019-03-26T09:16:43.951Z,7.4
2019-03-26T09:17:46.030Z,7.4
2019-03-26T09:18:48.069Z,7.3
2019-03-26T09:19:50.123Z,7.3
2019-03-26T09:20:52.149Z,7.4
2019-03-26T09:21:54.181Z,7.5
2019-03-26T09:22:56.222Z,7.4
2019-03-26T09:23:58.282Z,7.5
2019-03-26T09:25:00.560Z,7.4
2019-03-26T09:26:02.877Z,7.4
2019-03-26T09:27:04.978Z,7.4
2019-03-26T09:28:07.021Z,7.5
2019-03-26T09:29:09.102Z,7.5
2019-03-26T09:30:11.523Z,7.5
2019-03-26T09:31:13.567Z,7.4
2019-03-26T09:32:15.601Z,7.3
2019-03-26T09:33:17.924Z,7.2
2019-03-26T09:34:20.081Z,7.3
2019-03-26T09:35:22.121Z,7.4
2019-03-26T09:36:24.178Z,7.4
2019-03-26T09:37:26.535Z,7.4
2019-03-26T09:38:40.390Z,7.4
2019-03-26T09:39:42.440Z,7.5
2019-03-26T09:40:44.489Z,7.4
2019-03-26T09:41:46.818Z,7.5
2019-03-26T09:42:49.256Z,7.4
2019-03-26T09:43:51.296Z,7.5
2019-03-26T09:44:56.850Z,7.6
2019-03-26T09:45:59.192Z,7.6
2019-03-26T09:47:15.089Z,7.6
2019-03-26T09:48:18.676Z,7.5
2019-03-26T09:49:20.731Z,7.5
2019-03-26T09:50:22.759Z,7.5
2019-03-26T09:51:24.796Z,7.6
2019-03-26T09:52:26.853Z,7.7
2019-03-26T09:53:28.880Z,7.8
2019-03-26T09:54:30.923Z,7.9
2019-03-26T09:55:32.967Z,8
2019-03-26T09:56:35.020Z,8.1
2019-03-26T09:57:37.077Z,8.1
2019-03-26T09:58:39.391Z,8.1
2019-03-26T09:59:41.431Z,8.5
2019-03-26T10:00:44.325Z,8.9
2019-03-26T10:01:46.882Z,9.1
2019-03-26T10:02:48.933Z,9.3
2019-03-26T10:03:50.970Z,9
2019-03-26T10:04:53.016Z,8.9
2019-03-26T10:05:55.048Z,8.8
2019-03-26T10:06:57.091Z,8.7
2019-03-26T10:07:59.120Z,8.8
2019-03-26T10:09:01.155Z,8.9
2019-03-26T10:10:03.214Z,9.1
2019-03-26T10:11:05.256Z,9.2
2019-03-26T10:12:07.316Z,9.2
2019-03-26T10:13:09.644Z,9.1
2019-03-26T10:14:11.772Z,9.1
2019-03-26T10:15:13.802Z,9.1
2019-03-26T10:16:15.921Z,8.9
2019-03-26T10:17:17.958Z,8.7
2019-03-26T10:18:24.375Z,8.8
2019-03-26T10:19:26.434Z,8.8
2019-03-26T10:20:28.565Z,8.7
2019-03-26T10:21:31.071Z,8.3
2019-03-26T10:22:33.126Z,7.9
2019-03-26T10:23:35.163Z,7.3
2019-03-26T10:24:37.208Z,7.3
2019-03-26T10:25:39.419Z,7
2019-03-26T10:26:41.499Z,7
2019-03-26T10:27:43.554Z,6.9
2019-03-26T10:28:45.627Z,6.9
2019-03-26T10:29:47.978Z,6.8
2019-03-26T10:30:50.035Z,6.9
2019-03-26T10:31:52.087Z,6.7
2019-03-26T10:32:54.123Z,7
2019-03-26T10:33:56.477Z,7
2019-03-26T10:34:58.595Z,6.9
2019-03-26T10:36:01.323Z,7
2019-03-26T10:37:03.369Z,7.1
2019-03-26T10:38:05.456Z,7.2
2019-03-26T10:39:07.491Z,7.2
2019-03-26T10:40:09.931Z,7.2
2019-03-26T10:41:11.990Z,7.3
2019-03-26T10:42:14.134Z,7.7
2019-03-26T10:43:16.240Z,7.7
2019-03-26T10:44:18.274Z,7.6
2019-03-26T10:45:20.330Z,7.8
2019-03-26T10:46:24.032Z,7.8
2019-03-26T10:47:26.357Z,7.8
2019-03-26T10:48:30.526Z,7.8
2019-03-26T10:49:34.225Z,7.8
2019-03-26T10:50:36.590Z,8.2
2019-03-26T10:51:38.640Z,8.4
2019-03-26T10:52:40.682Z,8.5
2019-03-26T10:53:43.014Z,8.6
2019-03-26T10:54:45.064Z,8.3
2019-03-26T10:55:47.220Z,8.4
2019-03-26T10:56:49.652Z,8.2
2019-03-26T10:57:51.790Z,8.1
2019-03-26T10:58:53.847Z,8
2019-03-26T10:59:55.889Z,8
2019-03-26T11:00:57.923Z,8
2019-03-26T11:02:02.111Z,7.9
2019-03-26T11:03:04.207Z,7.9
2019-03-26T11:04:08.850Z,7.9
2019-03-26T11:05:10.906Z,7.8
2019-03-26T11:06:12.962Z,7.9
2019-03-26T11:07:15.003Z,7.9
2019-03-26T11:08:17.071Z,8
2019-03-26T11:09:28.431Z,8
2019-03-26T11:10:30.482Z,7.9
2019-03-26T11:11:32.509Z,7.9
2019-03-26T11:12:34.564Z,7.9
2019-03-26T11:13:36.633Z,7.9
2019-03-26T11:14:38.672Z,8
2019-03-26T11:15:41.371Z,8.2
2019-03-26T11:16:43.724Z,8.3
2019-03-26T11:17:45.759Z,8.5
2019-03-26T11:18:48.092Z,8.6
2019-03-26T11:19:50.134Z,8.6
2019-03-26T11:21:04.381Z,8.6
2019-03-26T11:22:06.421Z,8.7
2019-03-26T11:23:08.460Z,8.9
2019-03-26T11:24:10.496Z,8.6
2019-03-26T11:25:13.772Z,8.8
2019-03-26T11:26:15.821Z,9
2019-03-26T11:27:18.240Z,9
2019-03-26T11:28:20.847Z,9
2019-03-26T11:29:23.282Z,8.8
2019-03-26T11:30:25.335Z,8.8
2019-03-26T11:31:30.914Z,8.8
2019-03-26T11:32:32.957Z,8.8
2019-03-26T11:33:34.987Z,8.9
2019-03-26T11:34:37.696Z,8.9
2019-03-26T11:35:39.738Z,9
2019-03-26T11:36:41.800Z,9
2019-03-26T11:37:43.883Z,8.9
2019-03-26T11:38:45.931Z,8.9
2019-03-26T11:39:48.310Z,9
2019-03-26T11:40:50.350Z,9.1
2019-03-26T11:41:52.402Z,9.1
2019-03-26T11:42:54.433Z,9.1
2019-03-26T11:43:56.473Z,9.1
2019-03-26T11:45:00.687Z,9.1
2019-03-26T11:46:02.744Z,8.8
2019-03-26T11:47:04.785Z,8.8
2019-03-26T11:48:06.824Z,8.9
2019-03-26T11:49:09.253Z,8.7
2019-03-26T11:50:11.568Z,8.6
2019-03-26T11:51:13.624Z,8.7
2019-03-26T11:52:15.657Z,8.5
2019-03-26T11:53:17.689Z,8.5
2019-03-26T11:54:19.722Z,8.5
2019-03-26T11:55:23.046Z,8.7
2019-03-26T11:56:25.682Z,8.8
2019-03-26T11:57:27.724Z,8.7
2019-03-26T11:58:32.391Z,8.7
2019-03-26T11:59:34.821Z,8.6
2019-03-26T12:00:37.156Z,8.8
2019-03-26T12:01:39.199Z,8.8
2019-03-26T12:02:41.608Z,8.9
2019-03-26T12:03:43.754Z,8.9
2019-03-26T12:04:45.794Z,9.1
2019-03-26T12:05:47.835Z,9.1
2019-03-26T12:06:49.887Z,9.1
2019-03-26T12:07:51.925Z,9
2019-03-26T12:08:53.966Z,8.8
2019-03-26T12:09:56.098Z,8.9
2019-03-26T12:10:58.161Z,9
2019-03-26T12:12:00.190Z,8.9
2019-03-26T12:13:02.237Z,8.9
2019-03-26T12:14:04.290Z,9
2019-03-26T12:15:06.316Z,9.2
2019-03-26T12:16:08.366Z,9.2
2019-03-26T12:17:10.683Z,9.3
2019-03-26T12:18:12.722Z,9
2019-03-26T12:19:14.755Z,9
2019-03-26T12:20:17.088Z,8.9
2019-03-26T12:21:19.171Z,9.1
2019-03-26T12:22:21.218Z,9.1
2019-03-26T12:23:23.267Z,9.2
2019-03-26T12:24:25.331Z,9.2
2019-03-26T12:25:27.416Z,9.1
2019-03-26T12:26:29.470Z,9.1
2019-03-26T12:27:31.906Z,9.1
2019-03-26T12:28:33.940Z,9.3
2019-03-26T12:29:36.365Z,9.2
2019-03-26T12:30:38.706Z,9.3
2019-03-26T12:31:40.759Z,9.2
2019-03-26T12:32:43.070Z,9.2
2019-03-26T12:33:45.497Z,9.1
2019-03-26T12:34:47.545Z,9.1
2019-03-26T12:35:49.859Z,9.1
2019-03-26T12:36:51.909Z,9
2019-03-26T12:37:53.951Z,9.1
2019-03-26T12:38:55.987Z,9.1
2019-03-26T12:40:01.955Z,9
2019-03-26T12:41:04.024Z,8.9
2019-03-26T12:42:06.065Z,8.8
2019-03-26T12:43:08.103Z,8.8
2019-03-26T12:44:10.440Z,8.8
2019-03-26T12:45:12.485Z,8.8
2019-03-26T12:46:15.110Z,8.8
2019-03-26T12:47:17.537Z,8.8
2019-03-26T12:48:19.568Z,9
2019-03-26T12:49:21.619Z,9
2019-03-26T12:50:23.657Z,9.2
2019-03-26T12:51:25.979Z,9.4
2019-03-26T12:52:28.081Z,9.7
2019-03-26T12:53:30.217Z,9.8
2019-03-26T12:54:32.256Z,9.8
2019-03-26T12:55:34.570Z,9.8
2019-03-26T12:56:36.618Z,9.7
2019-03-26T12:57:38.931Z,9.5
2019-03-26T12:58:40.983Z,9.7
2019-03-26T12:59:43.304Z,9.9
2019-03-26T13:00:45.434Z,9.7
2019-03-26T13:01:47.507Z,9.8
2019-03-26T13:02:49.600Z,9.7
2019-03-26T13:03:51.643Z,9.7
2019-03-26T13:04:53.957Z,9.6
2019-03-26T13:05:56.118Z,9.7
2019-03-26T13:06:58.159Z,9.6
2019-03-26T13:08:00.205Z,9.5
2019-03-26T13:09:02.229Z,9.4
2019-03-26T13:10:15.453Z,9.4
2019-03-26T13:11:18.330Z,9.4
2019-03-26T13:12:20.366Z,9.4
2019-03-26T13:13:22.420Z,9.5
2019-03-26T13:14:24.741Z,9.5
2019-03-26T13:15:26.777Z,9.4
2019-03-26T13:16:29.103Z,9.4
2019-03-26T13:17:31.442Z,9.4
2019-03-26T13:18:33.478Z,9.4
2019-03-26T13:19:35.528Z,9.4
2019-03-26T13:20:37.854Z,9.3
2019-03-26T13:21:39.885Z,9.3
2019-03-26T13:22:41.936Z,9.3
2019-03-26T13:23:43.977Z,9.3
2019-03-26T13:24:46.032Z,9.2
2019-03-26T13:25:48.088Z,9.3
2019-03-26T13:26:50.288Z,9.3
2019-03-26T13:27:52.344Z,9.2
2019-03-26T13:28:54.409Z,9.2
2019-03-26T13:29:56.469Z,9.1
2019-03-26T13:30:58.490Z,9.2
2019-03-26T13:32:00.539Z,9.2
2019-03-26T13:33:02.868Z,9.3
2019-03-26T13:34:05.484Z,9.3
2019-03-26T13:35:07.899Z,9.3
2019-03-26T13:36:09.995Z,9.3
2019-03-26T13:37:12.057Z,9.3
2019-03-26T13:38:14.095Z,9.3
2019-03-26T13:39:16.152Z,9.4
2019-03-26T13:40:28.837Z,9.3
2019-03-26T13:41:30.869Z,9.3
2019-03-26T13:42:33.214Z,9.3
2019-03-26T13:43:35.265Z,9.3
2019-03-26T13:44:37.311Z,9.3
2019-03-26T13:45:39.355Z,9.3
2019-03-26T13:46:41.487Z,9.2
2019-03-26T13:47:43.532Z,9.1
2019-03-26T13:48:45.859Z,9
2019-03-26T13:49:48.597Z,9.1
2019-03-26T13:50:50.748Z,9
2019-03-26T13:51:53.167Z,8.9
2019-03-26T13:52:55.213Z,8.9
2019-03-26T13:53:57.262Z,9.2
2019-03-26T13:54:59.350Z,9.2
2019-03-26T13:56:01.405Z,9.2
2019-03-26T13:57:03.826Z,9.3
2019-03-26T13:58:05.864Z,9.4
2019-03-26T13:59:07.967Z,9.4
2019-03-26T14:00:10.017Z,9.5
2019-03-26T14:01:12.063Z,9.4
2019-03-26T14:02:14.092Z,9.5
2019-03-26T14:03:16.524Z,9.5
2019-03-26T14:04:18.550Z,9.6
2019-03-26T14:05:20.897Z,9.7
2019-03-26T14:06:22.945Z,9.9
2019-03-26T14:07:24.986Z,10
2019-03-26T14:08:27.063Z,10.3
2019-03-26T14:09:29.113Z,10.2
2019-03-26T14:10:42.486Z,10.2
2019-03-26T14:11:44.530Z,10.2
2019-03-26T14:12:46.650Z,10.3
2019-03-26T14:13:48.693Z,10.1
2019-03-26T14:14:51.089Z,10.2
2019-03-26T14:15:53.144Z,10.1
2019-03-26T14:16:55.181Z,10.2
2019-03-26T14:17:57.216Z,10.1
2019-03-26T14:18:59.260Z,10.2
2019-03-26T14:20:01.357Z,10.3
2019-03-26T14:21:03.792Z,10.3
2019-03-26T14:22:06.125Z,10.4
2019-03-26T14:23:08.466Z,10.6
2019-03-26T14:24:14.457Z,10.4
2019-03-26T14:25:16.896Z,10.5
2019-03-26T14:26:18.942Z,10.4